createdAt,value
2017-12-03T00:00:14.996Z,0.33
2017-12-03T00:02:43.908Z,0.00
2017-12-03T00:05:12.740Z,0.00
2017-12-03T00:07:41.592Z,0.00
2017-12-03T00:10:10.440Z,0.00
2017-12-03T00:12:39.312Z,1.20
2017-12-03T00:15:08.174Z,0.10
2017-12-03T00:17:37.196Z,0.00
2017-12-03T00:20:06.394Z,0.00
2017-12-03T00:22:35.468Z,0.00
2017-12-03T00:25:04.756Z,0.00
2017-12-03T00:27:33.582Z,0.00
2017-12-03T00:30:02.452Z,0.00
2017-12-03T00:32:31.328Z,0.00
2017-12-03T00:35:00.171Z,0.00
2017-12-03T00:37:30.160Z,0.00
2017-12-03T00:39:59.010Z,0.00
2017-12-03T00:42:27.848Z,0.00
2017-12-03T00:44:56.728Z,0.00
2017-12-03T00:47:25.612Z,0.00
2017-12-03T00:49:54.450Z,0.00
2017-12-03T00:52:23.576Z,0.00
2017-12-03T00:54:52.416Z,0.17
2017-12-03T00:57:21.308Z,0.00
2017-12-03T00:59:51.880Z,0.00
2017-12-03T01:02:20.724Z,0.00
2017-12-03T01:04:49.557Z,0.00
2017-12-03T01:07:18.510Z,0.10
2017-12-03T01:09:47.354Z,0.00
2017-12-03T01:12:16.414Z,0.10
2017-12-03T01:14:45.613Z,0.00
2017-12-03T01:17:14.508Z,0.00
2017-12-03T01:19:43.420Z,0.07
2017-12-03T01:22:12.298Z,0.00
2017-12-03T01:24:41.205Z,0.13
2017-12-03T01:27:10.095Z,0.00
2017-12-03T01:29:38.945Z,0.00
2017-12-03T01:32:07.812Z,0.10
2017-12-03T01:34:37.000Z,0.17
2017-12-03T01:37:05.850Z,0.30
2017-12-03T01:39:34.738Z,0.00
2017-12-03T01:42:03.584Z,1.77
2017-12-03T01:44:32.480Z,0.00
2017-12-03T01:47:01.356Z,0.00
2017-12-03T01:49:30.181Z,0.00
2017-12-03T01:51:59.062Z,0.13
2017-12-03T01:54:27.894Z,0.00
2017-12-03T01:56:56.735Z,0.20
2017-12-03T01:59:25.685Z,0.00
2017-12-03T02:01:54.515Z,0.00
2017-12-03T02:04:23.364Z,0.10
2017-12-03T02:06:52.210Z,0.77
2017-12-03T02:09:21.088Z,0.00
2017-12-03T02:11:49.983Z,3.60
2017-12-03T02:14:18.840Z,0.00
2017-12-03T02:16:47.708Z,0.10
2017-12-03T02:19:16.540Z,0.03
2017-12-03T02:21:45.422Z,0.10
2017-12-03T02:24:14.260Z,2.40
2017-12-03T02:26:43.811Z,0.57
2017-12-03T02:29:12.688Z,1.80
2017-12-03T02:31:41.514Z,0.00
2017-12-03T02:34:10.360Z,0.07
2017-12-03T02:36:39.688Z,0.70
2017-12-03T02:39:09.157Z,0.00
2017-12-03T02:41:38.106Z,0.00
2017-12-03T02:44:07.340Z,0.00
2017-12-03T02:46:36.204Z,2.90
2017-12-03T02:49:05.102Z,0.00
2017-12-03T02:51:33.958Z,0.00
2017-12-03T02:54:02.805Z,0.00
2017-12-03T02:56:31.652Z,0.43
2017-12-03T02:59:00.519Z,0.97
2017-12-03T03:01:29.400Z,0.20
2017-12-03T03:03:58.239Z,0.40
2017-12-03T03:06:27.112Z,0.00
2017-12-03T03:08:55.943Z,1.70
2017-12-03T03:11:24.802Z,0.00
2017-12-03T03:13:53.660Z,0.27
2017-12-03T03:16:22.486Z,0.00
2017-12-03T03:18:51.468Z,0.00
2017-12-03T03:21:20.360Z,2.47
2017-12-03T03:23:49.228Z,0.00
2017-12-03T03:26:18.071Z,0.63
2017-12-03T03:28:46.984Z,3.03
2017-12-03T03:31:15.815Z,1.37
2017-12-03T03:33:44.649Z,0.00
2017-12-03T03:36:13.762Z,0.00
2017-12-03T03:38:42.588Z,0.10
2017-12-03T03:41:12.063Z,0.00
2017-12-03T03:43:40.920Z,0.00
2017-12-03T03:46:09.783Z,0.00
2017-12-03T03:48:38.610Z,1.50
2017-12-03T03:51:07.474Z,0.00
2017-12-03T03:53:36.306Z,0.00
2017-12-03T03:56:05.801Z,0.40
2017-12-03T03:58:34.664Z,2.00
2017-12-03T04:01:04.132Z,0.93
2017-12-03T04:03:32.971Z,0.00
2017-12-03T04:06:01.829Z,0.10
2017-12-03T04:08:31.414Z,0.20
2017-12-03T04:11:00.262Z,0.00
2017-12-03T04:13:29.164Z,0.00
2017-12-03T04:15:57.992Z,0.37
2017-12-03T04:18:26.824Z,0.10
2017-12-03T04:20:55.689Z,0.13
2017-12-03T04:23:24.521Z,2.73
2017-12-03T04:25:53.358Z,0.00
2017-12-03T04:28:22.234Z,0.60
2017-12-03T04:30:51.111Z,0.00
2017-12-03T04:33:19.940Z,0.00
2017-12-03T04:35:48.800Z,2.70
2017-12-03T04:38:17.943Z,0.10
2017-12-03T04:40:47.441Z,0.00
2017-12-03T04:43:16.902Z,0.17
2017-12-03T04:45:46.528Z,9.97
2017-12-03T04:48:15.426Z,3.97
2017-12-03T04:50:44.916Z,2.27
2017-12-03T04:53:13.818Z,2.10
2017-12-03T04:55:42.650Z,0.00
2017-12-03T04:58:11.506Z,1.30
2017-12-03T05:00:41.102Z,0.83
2017-12-03T05:03:09.939Z,0.53
2017-12-03T05:05:38.814Z,2.73
2017-12-03T05:08:07.692Z,0.00
2017-12-03T05:10:36.518Z,0.00
2017-12-03T05:13:05.422Z,0.40
2017-12-03T05:15:34.266Z,1.30
2017-12-03T05:18:03.144Z,0.00
2017-12-03T05:20:32.004Z,0.00
2017-12-03T05:23:00.836Z,0.23
2017-12-03T05:25:29.667Z,0.17
2017-12-03T05:27:58.531Z,89.33
2017-12-03T05:30:27.377Z,76.80
2017-12-03T05:32:56.235Z,78.00
2017-12-03T05:35:25.111Z,71.33
2017-12-03T05:37:53.954Z,82.97
2017-12-03T05:40:23.440Z,74.43
2017-12-03T05:42:52.360Z,76.87
2017-12-03T05:45:21.201Z,77.37
2017-12-03T05:47:50.078Z,79.47
2017-12-03T05:50:18.975Z,77.07
2017-12-03T05:52:47.839Z,77.43
2017-12-03T05:55:16.745Z,69.80
2017-12-03T05:57:45.668Z,70.77
2017-12-03T06:00:15.461Z,71.17
2017-12-03T06:02:45.285Z,72.97
2017-12-03T06:05:14.161Z,77.87
2017-12-03T06:07:43.020Z,71.87
2017-12-03T06:10:11.868Z,72.33
2017-12-03T06:12:40.709Z,68.13
2017-12-03T06:15:09.554Z,75.03
2017-12-03T06:17:38.410Z,66.47
2017-12-03T06:20:07.262Z,71.67
2017-12-03T06:22:36.148Z,61.77
2017-12-03T06:25:05.047Z,68.10
2017-12-03T06:27:34.003Z,65.70
2017-12-03T06:30:02.865Z,63.07
2017-12-03T06:32:31.733Z,63.30
2017-12-03T06:35:00.561Z,62.33
2017-12-03T06:37:29.484Z,67.07
2017-12-03T06:39:58.651Z,59.70
2017-12-03T06:42:27.495Z,60.63
2017-12-03T06:44:56.371Z,63.30
2017-12-03T06:47:26.200Z,72.63
2017-12-03T06:49:55.064Z,61.20
2017-12-03T06:52:23.929Z,66.93
2017-12-03T06:54:52.807Z,66.40
2017-12-03T06:57:21.645Z,63.97
2017-12-03T06:59:50.484Z,63.70
2017-12-03T07:02:19.417Z,64.13
2017-12-03T07:04:48.855Z,59.10
2017-12-03T07:07:18.279Z,62.20
2017-12-03T07:09:47.171Z,63.87
2017-12-03T07:12:16.029Z,56.40
2017-12-03T07:14:44.871Z,64.83
2017-12-03T07:17:13.735Z,55.20
2017-12-03T07:19:42.586Z,41.27
2017-12-03T07:22:12.213Z,59.50
2017-12-03T07:24:41.089Z,60.30
2017-12-03T07:27:10.072Z,56.97
2017-12-03T07:29:38.920Z,60.50
2017-12-03T07:32:07.813Z,58.83
2017-12-03T07:34:36.665Z,49.17
2017-12-03T07:37:05.550Z,56.43
2017-12-03T07:39:34.861Z,56.73
2017-12-03T07:42:04.485Z,63.63
2017-12-03T07:44:33.477Z,52.10
2017-12-03T07:47:02.331Z,61.03
2017-12-03T07:49:31.274Z,57.30
2017-12-03T07:52:00.145Z,63.53
2017-12-03T07:54:29.015Z,64.23
2017-12-03T07:56:57.863Z,62.03
2017-12-03T07:59:26.712Z,61.73
2017-12-03T08:01:55.581Z,63.73
2017-12-03T08:04:24.421Z,65.17
2017-12-03T08:06:53.289Z,58.83
2017-12-03T08:09:22.551Z,65.23
2017-12-03T08:11:51.478Z,64.27
2017-12-03T08:14:22.538Z,67.43
2017-12-03T08:16:51.477Z,58.90
2017-12-03T08:19:21.285Z,62.37
2017-12-03T08:21:50.995Z,64.03
2017-12-03T08:24:19.897Z,61.10
2017-12-03T08:26:48.839Z,51.63
2017-12-03T08:29:18.104Z,61.80
2017-12-03T08:31:46.963Z,71.37
2017-12-03T08:34:15.843Z,69.77
2017-12-03T08:36:45.474Z,71.63
2017-12-03T08:39:14.343Z,66.20
2017-12-03T08:41:43.205Z,66.23
2017-12-03T08:44:13.377Z,67.80
2017-12-03T08:46:42.689Z,74.20
2017-12-03T08:49:12.207Z,75.43
2017-12-03T08:51:41.132Z,71.27
2017-12-03T08:54:10.235Z,79.97
2017-12-03T08:56:39.327Z,78.53
2017-12-03T08:59:08.329Z,68.20
2017-12-03T09:01:37.189Z,76.23
2017-12-03T09:04:06.211Z,71.50
2017-12-03T09:06:35.399Z,69.23
2017-12-03T09:09:04.252Z,78.67
2017-12-03T09:11:33.091Z,79.90
2017-12-03T09:14:03.521Z,77.60
2017-12-03T09:16:32.472Z,78.77
2017-12-03T09:19:02.400Z,66.77
2017-12-03T09:21:31.231Z,84.17
2017-12-03T09:24:00.084Z,79.67
2017-12-03T09:26:28.949Z,77.67
2017-12-03T09:28:57.955Z,84.33
2017-12-03T09:31:26.805Z,87.20
2017-12-03T09:33:55.669Z,82.97
2017-12-03T09:36:24.529Z,77.03
2017-12-03T09:38:53.373Z,74.33
2017-12-03T09:41:22.630Z,75.63
2017-12-03T09:43:51.522Z,83.60
2017-12-03T09:46:20.507Z,83.13
2017-12-03T09:48:49.363Z,80.77
2017-12-03T09:51:18.215Z,70.57
2017-12-03T09:53:47.350Z,85.40
2017-12-03T09:56:16.251Z,73.93
2017-12-03T09:58:45.133Z,63.13
2017-12-03T10:01:13.983Z,71.03
2017-12-03T10:03:43.217Z,75.03
2017-12-03T10:06:12.054Z,70.03
2017-12-03T10:08:40.909Z,71.77
2017-12-03T10:11:09.797Z,82.47
2017-12-03T10:13:38.650Z,74.90
2017-12-03T10:16:07.517Z,79.43
2017-12-03T10:18:36.383Z,70.93
2017-12-03T10:21:05.557Z,104.90
2017-12-03T10:23:34.395Z,71.50
2017-12-03T10:26:03.265Z,72.00
2017-12-03T10:28:32.121Z,77.03
2017-12-03T10:31:00.972Z,66.30
2017-12-03T10:33:29.865Z,73.80
2017-12-03T10:35:58.711Z,72.53
2017-12-03T10:38:27.576Z,68.30
2017-12-03T10:40:57.122Z,64.17
2017-12-03T10:43:25.960Z,77.03
2017-12-03T10:45:54.911Z,69.47
2017-12-03T10:48:23.853Z,64.77
2017-12-03T10:50:52.713Z,76.37
2017-12-03T10:53:21.579Z,73.43
2017-12-03T10:55:50.464Z,71.40
2017-12-03T10:58:19.665Z,71.10
2017-12-03T11:00:48.511Z,70.07
2017-12-03T11:03:17.369Z,65.10
2017-12-03T11:05:46.276Z,68.20
2017-12-03T11:08:15.139Z,57.07
2017-12-03T11:10:45.053Z,58.57
2017-12-03T11:13:13.913Z,49.53
2017-12-03T11:15:43.115Z,58.33
2017-12-03T11:18:11.971Z,59.20
2017-12-03T11:20:41.734Z,56.33
2017-12-03T11:23:10.583Z,65.33
2017-12-03T11:25:40.177Z,55.13
2017-12-03T11:28:09.012Z,44.30
2017-12-03T11:30:37.870Z,58.27
2017-12-03T11:33:06.741Z,62.50
2017-12-03T11:35:35.609Z,62.20
2017-12-03T11:38:04.453Z,58.60
2017-12-03T11:40:33.314Z,61.93
2017-12-03T11:43:02.191Z,52.77
2017-12-03T11:45:31.041Z,55.07
2017-12-03T11:47:59.910Z,74.03
2017-12-03T11:50:28.755Z,51.93
2017-12-03T11:52:57.595Z,59.57
2017-12-03T11:55:26.887Z,57.27
2017-12-03T11:57:55.739Z,64.37
2017-12-03T12:00:24.599Z,58.03
2017-12-03T12:02:53.519Z,53.77
2017-12-03T12:05:22.907Z,57.63
2017-12-03T12:07:51.749Z,59.93
2017-12-03T12:10:20.635Z,62.93
2017-12-03T12:12:49.543Z,77.07
2017-12-03T12:15:18.444Z,57.13
2017-12-03T12:17:47.305Z,52.93
2017-12-03T12:20:16.184Z,60.20
2017-12-03T12:22:45.037Z,54.33
2017-12-03T12:25:13.899Z,54.30
2017-12-03T12:27:42.750Z,52.87
2017-12-03T12:30:11.603Z,57.60
2017-12-03T12:32:40.476Z,53.90
2017-12-03T12:35:09.336Z,49.50
2017-12-03T12:37:38.247Z,48.33
2017-12-03T12:40:08.718Z,50.83
2017-12-03T12:42:37.585Z,45.97
2017-12-03T12:45:06.426Z,51.63
2017-12-03T12:47:35.287Z,58.07
2017-12-03T12:50:04.221Z,48.83
2017-12-03T12:52:33.075Z,58.33
2017-12-03T12:55:01.929Z,56.30
2017-12-03T12:57:30.784Z,49.60
2017-12-03T13:00:00.407Z,55.80
2017-12-03T13:02:29.319Z,56.80
2017-12-03T13:04:58.187Z,54.90
2017-12-03T13:07:27.019Z,57.97
2017-12-03T13:09:55.913Z,69.13
2017-12-03T13:12:24.759Z,73.57
2017-12-03T13:14:53.604Z,72.90
2017-12-03T13:17:22.477Z,62.07
2017-12-03T13:19:51.307Z,73.20
2017-12-03T13:22:20.161Z,70.30
2017-12-03T13:24:49.075Z,71.40
2017-12-03T13:27:17.935Z,76.77
2017-12-03T13:29:46.785Z,81.30
2017-12-03T13:32:15.703Z,77.07
2017-12-03T13:34:44.551Z,93.43
2017-12-03T13:37:13.431Z,86.33
2017-12-03T13:39:42.303Z,105.63
2017-12-03T13:42:11.197Z,105.40
2017-12-03T13:44:40.043Z,110.20
2017-12-03T13:47:09.564Z,114.73
2017-12-03T13:49:38.421Z,116.83
2017-12-03T13:52:07.283Z,112.53
2017-12-03T13:54:36.167Z,99.37
2017-12-03T13:57:05.018Z,118.17
2017-12-03T13:59:33.878Z,107.70
2017-12-03T14:02:02.853Z,111.57
2017-12-03T14:04:31.709Z,109.03
2017-12-03T14:07:01.108Z,120.83
2017-12-03T14:09:29.991Z,129.17
2017-12-03T14:11:58.854Z,128.50
2017-12-03T14:14:27.711Z,106.07
2017-12-03T14:16:56.596Z,141.60
2017-12-03T14:19:25.438Z,119.17
2017-12-03T14:21:54.316Z,102.40
2017-12-03T14:24:23.209Z,121.10
2017-12-03T14:26:52.781Z,115.07
2017-12-03T14:29:21.670Z,134.10
2017-12-03T14:31:50.561Z,121.27
2017-12-03T14:34:19.402Z,117.27
2017-12-03T14:36:48.261Z,117.10
2017-12-03T14:39:17.133Z,125.23
2017-12-03T14:41:45.985Z,124.67
2017-12-03T14:44:14.836Z,134.07
2017-12-03T14:46:43.748Z,129.43
2017-12-03T14:49:12.595Z,123.43
2017-12-03T14:51:42.319Z,130.40
2017-12-03T14:54:11.235Z,128.37
2017-12-03T14:56:40.851Z,121.33
2017-12-03T14:59:09.709Z,123.70
2017-12-03T15:01:38.639Z,132.63
2017-12-03T15:04:07.487Z,129.73
2017-12-03T15:06:36.327Z,117.37
2017-12-03T15:09:05.223Z,140.80
2017-12-03T15:11:34.077Z,138.03
2017-12-03T15:14:02.945Z,118.30
2017-12-03T15:16:31.835Z,144.57
2017-12-03T15:19:00.710Z,135.90
2017-12-03T15:21:29.588Z,123.53
2017-12-03T15:23:58.459Z,152.50
2017-12-03T15:26:27.338Z,142.47
2017-12-03T15:28:56.231Z,153.23
2017-12-03T15:31:25.110Z,129.57
2017-12-03T15:33:53.982Z,133.73
2017-12-03T15:36:22.841Z,124.53
2017-12-03T15:38:52.275Z,128.80
2017-12-03T15:41:21.153Z,129.40
2017-12-03T15:43:50.003Z,127.70
2017-12-03T15:46:18.894Z,144.53
2017-12-03T15:48:47.741Z,126.43
2017-12-03T15:51:16.629Z,140.27
2017-12-03T15:53:45.493Z,143.37
2017-12-03T15:56:14.343Z,146.73
2017-12-03T15:58:43.212Z,139.60
2017-12-03T16:01:12.824Z,136.57
2017-12-03T16:03:41.692Z,128.43
2017-12-03T16:06:11.168Z,127.77
2017-12-03T16:08:40.052Z,146.63
2017-12-03T16:11:08.904Z,132.60
2017-12-03T16:13:37.810Z,133.83
2017-12-03T16:16:06.689Z,140.43
2017-12-03T16:18:35.622Z,141.60
2017-12-03T16:21:05.076Z,121.40
2017-12-03T16:23:34.082Z,145.43
2017-12-03T16:26:02.984Z,147.37
2017-12-03T16:28:31.828Z,146.57
2017-12-03T16:31:01.270Z,144.90
2017-12-03T16:33:30.138Z,149.70
2017-12-03T16:35:59.004Z,135.13
2017-12-03T16:38:27.876Z,136.80
2017-12-03T16:40:57.258Z,133.03
2017-12-03T16:43:26.115Z,134.77
2017-12-03T16:45:54.996Z,139.60
2017-12-03T16:48:25.164Z,148.73
2017-12-03T16:50:54.018Z,147.17
2017-12-03T16:53:24.038Z,145.47
2017-12-03T16:55:52.887Z,142.63
2017-12-03T16:58:21.753Z,139.33
2017-12-03T17:00:50.678Z,149.40
2017-12-03T17:03:19.752Z,153.53
2017-12-03T17:05:48.640Z,131.07
2017-12-03T17:08:17.491Z,145.57
2017-12-03T17:10:46.361Z,133.07
2017-12-03T17:13:15.194Z,131.70
2017-12-03T17:15:44.061Z,129.17
2017-12-03T17:18:12.921Z,124.03
2017-12-03T17:20:41.750Z,141.73
2017-12-03T17:23:10.636Z,130.87
2017-12-03T17:25:39.740Z,143.90
2017-12-03T17:28:08.680Z,126.37
2017-12-03T17:30:37.612Z,141.80
2017-12-03T17:33:07.160Z,129.03
2017-12-03T17:35:36.124Z,134.93
2017-12-03T17:38:05.616Z,125.17
2017-12-03T17:40:34.739Z,143.43
2017-12-03T17:43:04.563Z,136.37
2017-12-03T17:45:33.451Z,121.10
2017-12-03T17:48:02.336Z,154.10
2017-12-03T17:50:31.196Z,129.77
2017-12-03T17:53:00.086Z,146.30
2017-12-03T17:55:28.958Z,134.13
2017-12-03T17:57:58.626Z,144.83
2017-12-03T18:00:27.488Z,151.10
2017-12-03T18:02:56.905Z,134.57
2017-12-03T18:05:25.756Z,130.83
2017-12-03T18:07:54.667Z,123.13
2017-12-03T18:10:23.544Z,109.60
2017-12-03T18:12:52.410Z,126.10
2017-12-03T18:15:21.285Z,134.57
2017-12-03T18:17:50.148Z,151.37
2017-12-03T18:20:19.342Z,146.20
2017-12-03T18:22:49.387Z,144.63
2017-12-03T18:25:18.622Z,159.63
2017-12-03T18:27:47.471Z,145.53
2017-12-03T18:30:17.420Z,127.43
2017-12-03T18:32:46.284Z,129.50
2017-12-03T18:35:15.327Z,157.57
2017-12-03T18:37:45.099Z,144.47
2017-12-03T18:40:14.684Z,166.03
2017-12-03T18:42:43.617Z,173.57
2017-12-03T18:45:12.488Z,171.87
2017-12-03T18:47:42.338Z,143.47
2017-12-03T18:50:11.210Z,154.67
2017-12-03T18:52:40.100Z,151.23
2017-12-03T18:55:08.962Z,134.73
2017-12-03T18:57:37.824Z,159.87
2017-12-03T19:00:06.716Z,155.10
2017-12-03T19:02:36.447Z,164.83
2017-12-03T19:05:06.269Z,166.90
2017-12-03T19:07:35.136Z,184.07
2017-12-03T19:10:04.035Z,208.40
2017-12-03T19:12:32.880Z,205.00
2017-12-03T19:15:01.778Z,200.73
2017-12-03T19:17:30.655Z,184.73
2017-12-03T19:20:00.404Z,179.73
2017-12-03T19:22:29.322Z,168.90
2017-12-03T19:24:58.185Z,197.53
2017-12-03T19:27:28.287Z,190.67
2017-12-03T19:29:57.181Z,202.60
2017-12-03T19:32:26.047Z,245.57
2017-12-03T19:34:54.900Z,224.57
2017-12-03T19:37:24.705Z,246.87
2017-12-03T19:39:53.685Z,240.30
2017-12-03T19:42:22.553Z,295.13
2017-12-03T19:44:51.413Z,227.03
2017-12-03T19:47:21.113Z,208.77
2017-12-03T19:49:50.000Z,287.87
2017-12-03T19:52:18.885Z,325.67
2017-12-03T19:54:48.280Z,346.97
2017-12-03T19:57:17.339Z,344.67
2017-12-03T19:59:46.835Z,295.67
2017-12-03T20:02:15.826Z,391.67
2017-12-03T20:04:44.753Z,342.67
2017-12-03T20:07:13.708Z,295.80
2017-12-03T20:09:42.561Z,315.30
2017-12-03T20:12:12.287Z,318.63
2017-12-03T20:14:41.265Z,348.33
2017-12-03T20:17:11.367Z,452.17
2017-12-03T20:19:40.253Z,337.60
2017-12-03T20:22:09.128Z,272.10
2017-12-03T20:24:38.133Z,291.43
2017-12-03T20:27:07.951Z,260.77
2017-12-03T20:29:36.840Z,282.93
2017-12-03T20:32:05.743Z,187.10
2017-12-03T20:34:34.699Z,261.97
2017-12-03T20:37:04.376Z,199.20
2017-12-03T20:39:33.222Z,195.67
2017-12-03T20:42:02.099Z,186.73
2017-12-03T20:44:30.987Z,212.67
2017-12-03T20:46:59.831Z,215.00
2017-12-03T20:49:29.467Z,215.17
2017-12-03T20:51:58.332Z,247.17
2017-12-03T20:54:28.771Z,251.23
2017-12-03T20:56:58.032Z,251.60
2017-12-03T20:59:26.883Z,258.07
2017-12-03T21:01:55.808Z,265.03
2017-12-03T21:04:25.175Z,249.90
2017-12-03T21:06:54.073Z,205.37
2017-12-03T21:09:22.939Z,262.37
2017-12-03T21:11:51.927Z,259.27
2017-12-03T21:14:20.879Z,238.07
2017-12-03T21:16:49.718Z,272.67
2017-12-03T21:19:18.614Z,219.07
2017-12-03T21:21:47.471Z,227.70
2017-12-03T21:24:16.565Z,279.93
2017-12-03T21:26:45.468Z,256.00
2017-12-03T21:29:14.312Z,244.67
2017-12-03T21:31:43.552Z,262.97
2017-12-03T21:34:12.487Z,252.17
2017-12-03T21:36:41.399Z,251.33
2017-12-03T21:39:10.253Z,215.80
2017-12-03T21:41:39.155Z,204.17
2017-12-03T21:44:08.342Z,247.87
2017-12-03T21:46:37.729Z,242.57
2017-12-03T21:49:07.501Z,220.80
2017-12-03T21:51:37.153Z,229.67
2017-12-03T21:54:06.051Z,218.47
2017-12-03T21:56:34.979Z,267.80
2017-12-03T21:59:03.917Z,231.03
2017-12-03T22:01:32.785Z,254.47
2017-12-03T22:04:01.661Z,266.23
2017-12-03T22:06:30.551Z,280.07
2017-12-03T22:08:59.451Z,365.90
2017-12-03T22:11:29.593Z,327.37
2017-12-03T22:13:58.771Z,334.53
2017-12-03T22:16:28.495Z,364.60
2017-12-03T22:18:57.333Z,295.67
2017-12-03T22:21:26.371Z,400.93
2017-12-03T22:23:55.233Z,494.30
2017-12-03T22:26:24.100Z,421.60
2017-12-03T22:28:52.984Z,358.03
2017-12-03T22:31:21.847Z,335.50
2017-12-03T22:33:51.165Z,379.07
2017-12-03T22:36:20.001Z,390.93
2017-12-03T22:38:48.875Z,486.00
2017-12-03T22:41:17.723Z,390.90
2017-12-03T22:43:46.570Z,356.37
2017-12-03T22:46:16.104Z,432.40
2017-12-03T22:48:45.981Z,348.20
2017-12-03T22:51:14.828Z,368.57
2017-12-03T22:53:43.723Z,391.63
2017-12-03T22:56:12.561Z,378.17
2017-12-03T22:58:41.455Z,339.63
2017-12-03T23:01:10.905Z,384.13
2017-12-03T23:03:39.744Z,389.27
2017-12-03T23:06:08.598Z,363.47
2017-12-03T23:08:37.470Z,370.27
2017-12-03T23:11:06.309Z,318.27
2017-12-03T23:13:35.826Z,396.00
2017-12-03T23:16:04.758Z,381.47
2017-12-03T23:18:33.636Z,330.87
2017-12-03T23:21:02.485Z,298.67
2017-12-03T23:23:31.355Z,293.50
2017-12-03T23:26:00.202Z,299.37
2017-12-03T23:28:29.040Z,379.47
2017-12-03T23:30:57.907Z,373.37
2017-12-03T23:33:27.595Z,401.40
2017-12-03T23:35:56.466Z,252.70
2017-12-03T23:38:25.340Z,359.80
2017-12-03T23:40:54.191Z,265.50
2017-12-03T23:43:23.037Z,272.33
2017-12-03T23:45:51.888Z,258.20
2017-12-03T23:48:20.737Z,299.20
2017-12-03T23:50:49.589Z,414.17
2017-12-03T23:53:18.473Z,290.13
2017-12-03T23:55:48.478Z,305.37
2017-12-03T23:58:17.366Z,315.33
